Cochecton Center, New York
Current Conditions -  °F | °C
As of 11:35 AM on Tuesday 27 Jan 2015 (Local Time) from KMSV Reporting Station
Overcast Overcast  
Wind Chill:   Ceiling: 3600
Heat Index: 18°   Visibility: 10mi
Dew Point: 10°   Wind: 15mph
Humidity: 73%   Direction: 330°NNW
Pressure: 29.68"   Gusts: 24mph
Location:  41.65°N, 74.98°W
Report Text: KMSV 271635Z AUTO 33013G21KT 10SM BKN036 OVC044 M08/M12 A2968 RMK AO1
Loading
Personal Weather Stations






























Interactive Weather Map New forecast layout! Learn more

10-Day Weather Forecast

Advertisements
Track Severe Weather on mobile